TimePDT,TemperatureF,Dew PointF,Humidity,Sea Level PressureIn,VisibilityMPH,Wind Direction,Wind SpeedMPH,Gust SpeedMPH,PrecipitationIn,Events,Conditions,WindDirDegrees,DateUTC
12:53 AM,62.1,52.0,70,29.97,10.0,Calm,Calm,-,0.00,,Overcast,0,2013-04-25 07:53:00
1:53 AM,62.1,52.0,70,29.96,10.0,Calm,Calm,-,N/A,,Overcast,0,2013-04-25 08:53:00
2:53 AM,62.1,52.0,70,29.96,10.0,Calm,Calm,-,N/A,,Overcast,0,2013-04-25 09:53:00
3:00 AM,62.6,51.8,68,29.96,10.0,Calm,Calm,-,N/A,,Overcast,0,2013-04-25 10:00:00
3:51 AM,62.6,51.8,68,29.97,10.0,South,3.5,-,N/A,,Overcast,180,2013-04-25 10:51:00
3:53 AM,62.1,51.1,67,29.96,10.0,Calm,Calm,-,N/A,,Overcast,0,2013-04-25 10:53:00
4:53 AM,62.1,52.0,70,29.98,10.0,Calm,Calm,-,N/A,,Overcast,0,2013-04-25 11:53:00
5:53 AM,62.1,51.1,67,29.99,10.0,Calm,Calm,-,N/A,,Overcast,0,2013-04-25 12:53:00
6:53 AM,62.1,51.1,67,30.01,10.0,Calm,Calm,-,N/A,,Overcast,0,2013-04-25 13:53:00
7:53 AM,63.0,51.1,65,30.03,10.0,Calm,Calm,-,N/A,,Overcast,0,2013-04-25 14:53:00
8:53 AM,64.9,51.1,61,30.04,10.0,Calm,Calm,-,N/A,,Overcast,0,2013-04-25 15:53:00
9:35 AM,66.2,50.0,56,30.06,10.0,Calm,Calm,-,N/A,,Overcast,0,2013-04-25 16:35:00
9:53 AM,66.0,50.0,56,30.06,10.0,Calm,Calm,-,N/A,,Overcast,0,2013-04-25 16:53:00
10:21 AM,68.0,50.0,52,30.07,10.0,Calm,Calm,-,N/A,,Overcast,0,2013-04-25 17:21:00
10:53 AM,69.1,48.9,49,30.07,10.0,Calm,Calm,-,N/A,,Overcast,0,2013-04-25 17:53:00
11:53 AM,71.1,48.0,44,30.06,10.0,Variable,3.5,-,N/A,,Overcast,0,2013-04-25 18:53:00
12:53 PM,71.1,48.0,44,30.05,10.0,SW,4.6,-,N/A,,Overcast,220,2013-04-25 19:53:00
1:53 PM,73.0,48.0,41,30.04,10.0,Variable,4.6,-,N/A,,Overcast,0,2013-04-25 20:53:00
2:53 PM,73.0,48.9,42,30.04,10.0,SSW,8.1,-,N/A,,Overcast,210,2013-04-25 21:53:00
3:53 PM,75.0,46.9,37,30.03,10.0,West,5.8,-,N/A,,Partly Cloudy,270,2013-04-25 22:53:00
4:53 PM,73.9,46.0,37,30.02,10.0,SSW,6.9,-,N/A,,Clear,210,2013-04-25 23:53:00
5:53 PM,73.0,46.0,38,30.02,10.0,West,6.9,-,N/A,,Clear,280,2013-04-26 00:53:00
6:53 PM,70.0,46.9,44,30.03,10.0,West,6.9,-,N/A,,Clear,270,2013-04-26 01:53:00
7:53 PM,66.9,46.9,49,30.04,10.0,West,5.8,-,N/A,,Clear,280,2013-04-26 02:53:00
8:53 PM,64.9,48.9,56,30.07,10.0,WNW,5.8,-,N/A,,Clear,290,2013-04-26 03:53:00
9:53 PM,64.0,50.0,60,30.09,10.0,Calm,Calm,-,N/A,,Clear,0,2013-04-26 04:53:00
10:53 PM,63.0,50.0,63,30.10,10.0,West,4.6,-,N/A,,Clear,280,2013-04-26 05:53:00